Time;durP1;ratioP1;P1;durP2;ratioP2;P2;SDS_P1;SDS_P2;PMS_P1;PMS_P2;Temp;Humidity;BMP_temperature;BMP_pressure;BME280_temperature;BME280_humidity;BME280_pressure;Samples;Min_cycle;Max_cycle;Signal;HPM_P1;HPM_P2
2022/04/05 00:01:24;;;;;;;12.03;6.87;;;;;;;5.71;100.00;61416.63;5095502;28;20491;-72
2022/04/05 00:03:51;;;;;;;17.97;7.83;;;;;;;5.74;100.00;61417.28;5094992;28;20460;-73
2022/04/05 00:06:17;;;;;;;12.00;7.73;;;;;;;5.75;100.00;61415.84;5095315;28;20446;-72
2022/04/05 00:08:45;;;;;;;11.80;7.07;;;;;;;5.82;100.00;61426.34;5095000;28;20498;-71
2022/04/05 00:11:12;;;;;;;11.27;7.23;;;;;;;5.90;100.00;61437.44;5095017;28;20987;-73
2022/04/05 00:13:39;;;;;;;13.67;7.83;;;;;;;5.98;100.00;61440.91;5095188;28;20437;-72
2022/04/05 00:16:07;;;;;;;13.87;8.13;;;;;;;5.90;100.00;61434.38;5094959;28;20473;-72
2022/04/05 00:18:35;;;;;;;14.83;8.83;;;;;;;5.79;100.00;61423.16;5094839;28;20939;-73
2022/04/05 00:21:02;;;;;;;12.40;7.60;;;;;;;5.79;100.00;61423.16;5095717;28;20437;-71
2022/04/05 00:23:28;;;;;;;12.60;7.60;;;;;;;5.80;100.00;61421.69;5094814;28;20437;-71
2022/04/05 00:25:55;;;;;;;12.23;7.73;;;;;;;5.67;100.00;61410.38;5094581;28;20441;-74
2022/04/05 00:28:22;;;;;;;11.00;7.93;;;;;;;5.70;100.00;61405.44;5095096;28;20479;-71
2022/04/05 00:30:49;;;;;;;12.90;8.07;;;;;;;5.72;100.00;61417.69;5094659;28;20550;-72
2022/04/05 00:33:17;;;;;;;14.17;7.87;;;;;;;5.81;100.00;61424.75;5094695;28;20434;-72
2022/04/05 00:35:44;;;;;;;12.67;8.57;;;;;;;5.73;100.00;61413.72;5094434;28;20897;-71
2022/04/05 00:38:10;;;;;;;16.83;8.37;;;;;;;5.67;100.00;61405.31;5094551;28;20445;-71
2022/04/05 00:40:37;;;;;;;22.03;8.70;;;;;;;4.85;100.00;61323.00;5094554;28;20438;-73
2022/04/05 00:43:05;;;;;;;20.93;9.03;;;;;;;4.75;100.00;61317.94;5094503;28;20514;-74
2022/04/05 00:45:32;;;;;;;18.63;8.83;;;;;;;5.37;100.00;61378.41;5094364;28;20446;-71
2022/04/05 00:47:59;;;;;;;11.13;7.73;;;;;;;5.32;100.00;61370.53;5093396;28;20944;-71
2022/04/05 00:50:28;;;;;;;12.30;8.57;;;;;;;5.31;100.00;61371.47;5093721;28;20499;-71
2022/04/05 00:52:55;;;;;;;13.43;8.73;;;;;;;5.39;100.00;61375.47;5094580;28;20433;-71
2022/04/05 00:55:23;;;;;;;20.07;9.37;;;;;;;5.22;100.00;61359.88;5093836;28;20606;-71
2022/04/05 00:57:51;;;;;;;21.20;9.67;;;;;;;5.47;100.00;61388.53;5094092;28;20473;-74
2022/04/05 01:00:19;;;;;;;17.87;8.70;;;;;;;5.23;100.00;61360.44;5094345;28;20860;-72
2022/04/05 01:02:48;;;;;;;15.73;8.43;;;;;;;5.25;100.00;61365.09;5094233;28;20477;-71
2022/04/05 01:05:17;;;;;;;16.23;8.80;;;;;;;5.35;100.00;61373.22;5093999;28;20532;-71
2022/04/05 01:07:47;;;;;;;14.27;8.70;;;;;;;5.33;100.00;61374.16;5094725;28;20434;-71
2022/04/05 01:10:14;;;;;;;12.73;8.40;;;;;;;4.75;100.00;61309.84;5093905;28;20558;-71
2022/04/05 01:12:41;;;;;;;14.70;8.37;;;;;;;5.40;100.00;61373.47;5093983;28;20438;-71
2022/04/05 01:15:09;;;;;;;17.00;9.23;;;;;;;5.57;100.00;61402.25;5093699;28;20473;-71
2022/04/05 01:17:36;;;;;;;17.30;9.33;;;;;;;5.32;100.00;61368.00;5093804;28;20506;-71
2022/04/05 01:20:04;;;;;;;11.63;7.97;;;;;;;5.36;100.00;61376.78;5093750;28;20905;-72
2022/04/05 01:22:31;;;;;;;14.97;8.70;;;;;;;5.29;100.00;61372.41;5093663;28;20951;-71
2022/04/05 01:24:59;;;;;;;13.87;9.07;;;;;;;5.33;100.00;61373.59;5093563;28;20442;-72
2022/04/05 01:27:27;;;;;;;16.33;8.63;;;;;;;5.33;100.00;61371.63;5093381;28;20450;-70
2022/04/05 01:29:55;;;;;;;21.03;10.30;;;;;;;5.38;100.00;61378.94;5093758;28;20464;-72
2022/04/05 01:32:22;;;;;;;16.93;9.23;;;;;;;5.37;100.00;61375.88;5093668;28;20466;-71
2022/04/05 01:34:49;;;;;;;17.47;9.13;;;;;;;5.29;100.00;61369.88;5093591;28;20519;-72
2022/04/05 01:37:17;;;;;;;17.67;8.90;;;;;;;5.21;100.00;61361.34;5093248;28;20485;-72
2022/04/05 01:39:44;;;;;;;18.03;8.93;;;;;;;5.23;100.00;61363.50;5093104;28;20461;-71
2022/04/05 01:42:13;;;;;;;12.50;7.83;;;;;;;5.24;100.00;61364.00;5093384;28;20433;-70
2022/04/05 01:44:41;;;;;;;14.97;8.30;;;;;;;5.18;100.00;61355.09;5093363;28;20566;-72
2022/04/05 01:47:11;;;;;;;15.60;8.40;;;;;;;5.24;100.00;61364.00;5093481;28;20446;-71
2022/04/05 01:49:39;;;;;;;16.47;7.83;;;;;;;5.23;100.00;61362.94;5093437;28;20498;-71
2022/04/05 01:52:07;;;;;;;15.40;8.27;;;;;;;5.08;100.00;61342.44;5093379;28;20453;-72
2022/04/05 01:54:35;;;;;;;13.73;8.50;;;;;;;5.09;100.00;61348.56;5093104;28;20479;-71
2022/04/05 01:57:03;;;;;;;13.80;8.47;;;;;;;5.11;100.00;61348.69;5092889;28;20927;-72
2022/04/05 01:59:36;;;;;;;15.13;8.13;;;;;;;5.07;100.00;61346.44;5092974;28;20438;-71
2022/04/05 02:02:05;;;;;;;14.43;7.53;;;;;;;4.79;100.00;61311.56;5093250;28;20454;-71
2022/04/05 02:04:33;;;;;;;16.07;7.57;;;;;;;4.63;100.00;61300.09;5092771;28;20456;-71
2022/04/05 02:07:00;;;;;;;11.63;6.93;;;;;;;4.87;100.00;61323.13;5092690;28;20955;-70
2022/04/05 02:09:27;;;;;;;14.40;8.20;;;;;;;4.87;100.00;61325.13;5093163;28;20437;-71
2022/04/05 02:11:54;;;;;;;13.63;7.27;;;;;;;4.88;100.00;61323.66;5092842;28;20516;-72
2022/04/05 02:14:21;;;;;;;12.77;6.63;;;;;;;4.70;100.00;61310.09;5092635;28;20970;-71
2022/04/05 02:16:49;;;;;;;11.93;7.20;;;;;;;4.86;100.00;61324.59;5092585;28;20469;-71
2022/04/05 02:19:16;;;;;;;20.87;9.83;;;;;;;4.72;100.00;61304.13;5093146;28;20771;-72
2022/04/05 02:21:42;;;;;;;19.80;8.80;;;;;;;4.61;100.00;61297.47;5092882;28;20442;-71
2022/04/05 02:24:09;;;;;;;9.13;6.07;;;;;;;4.45;100.00;61280.41;5092794;28;20530;-71
2022/04/05 02:26:36;;;;;;;10.67;6.93;;;;;;;4.24;100.00;61256.63;5093923;28;21077;-71
2022/04/05 02:29:03;;;;;;;11.80;6.03;;;;;;;4.39;100.00;61274.56;5092922;28;20458;-71
2022/04/05 02:31:30;;;;;;;14.13;7.27;;;;;;;4.47;100.00;61278.03;5092796;28;20469;-70
2022/04/05 02:33:58;;;;;;;11.20;5.90;;;;;;;4.54;100.00;61290.00;5092228;28;20967;-72
2022/04/05 02:36:25;;;;;;;11.17;6.30;;;;;;;4.38;100.00;61272.97;5092228;28;21103;-70
2022/04/05 02:38:52;;;;;;;11.70;6.50;;;;;;;4.35;100.00;61269.78;5092292;28;20520;-71
2022/04/05 02:41:19;;;;;;;10.37;6.00;;;;;;;4.15;100.00;61247.03;5092603;28;20450;-71
2022/04/05 02:43:46;;;;;;;14.43;5.93;;;;;;;4.30;100.00;61264.97;5092451;28;20442;-73
2022/04/05 02:46:14;;;;;;;9.43;5.83;;;;;;;4.17;100.00;61251.66;5092165;28;20503;-70
2022/04/05 02:48:43;;;;;;;7.40;5.40;;;;;;;4.20;100.00;61254.34;5092022;28;20438;-71
2022/04/05 02:51:13;;;;;;;8.47;5.50;;;;;;;4.15;100.00;61249.53;5092386;28;20778;-72
2022/04/05 02:53:40;;;;;;;6.13;4.50;;;;;;;4.09;100.00;61243.16;5092187;28;20437;-72
2022/04/05 02:56:08;;;;;;;9.10;4.60;;;;;;;4.02;100.00;61233.19;5092346;28;20474;-71
2022/04/05 02:58:38;;;;;;;7.07;4.73;;;;;;;3.94;100.00;61229.19;5092252;28;20441;-71
2022/04/05 03:01:06;;;;;;;8.80;4.40;;;;;;;3.96;100.00;61229.34;5092286;28;20878;-72
2022/04/05 03:03:33;;;;;;;6.43;4.30;;;;;;;3.97;100.00;61230.38;5092138;28;20434;-72
2022/04/05 03:06:00;;;;;;;9.87;5.27;;;;;;;3.95;100.00;61228.25;5091904;28;20908;-71
2022/04/05 03:08:29;;;;;;;6.40;4.60;;;;;;;4.01;100.00;61232.13;5092025;28;20487;-72
2022/04/05 03:10:56;;;;;;;8.93;4.93;;;;;;;4.04;100.00;61237.31;5091970;28;20530;-71
2022/04/05 03:13:23;;;;;;;10.57;4.57;;;;;;;4.07;100.00;61240.50;5094099;28;20441;-72
2022/04/05 03:15:50;;;;;;;6.40;4.43;;;;;;;4.09;100.00;61237.59;5096224;28;20474;-72
2022/04/05 03:18:17;;;;;;;8.47;5.20;;;;;;;4.12;100.00;61246.38;5096100;28;20446;-72
2022/04/05 03:20:44;;;;;;;8.27;5.03;;;;;;;4.08;100.00;61244.09;5095950;28;20935;-71
2022/04/05 03:23:11;;;;;;;8.97;4.97;;;;;;;3.68;100.00;61202.06;5096094;28;20518;-72
2022/04/05 03:25:39;;;;;;;12.37;5.40;;;;;;;4.09;100.00;61240.63;5096027;28;20442;-71
2022/04/05 03:28:06;;;;;;;11.63;5.17;;;;;;;3.30;100.00;61159.13;5096124;28;20445;-71
2022/04/05 03:30:34;;;;;;;17.03;5.63;;;;;;;4.11;100.00;61244.75;5095867;28;20474;-71
2022/04/05 03:33:00;;;;;;;16.00;5.63;;;;;;;4.00;100.00;61236.13;5096258;28;20492;-72
2022/04/05 03:35:28;;;;;;;9.40;5.67;;;;;;;3.83;100.00;61212.97;5095820;28;20499;-72
2022/04/05 03:37:55;;;;;;;11.80;6.70;;;;;;;3.83;100.00;61214.97;5095881;28;20524;-72
2022/04/05 03:40:21;;;;;;;14.80;8.20;;;;;;;3.64;100.00;61192.78;5096107;28;20429;-70
2022/04/05 03:42:50;;;;;;;14.13;7.63;;;;;;;3.58;100.00;61188.91;5095746;28;20445;-71
2022/04/05 03:45:17;;;;;;;14.10;8.60;;;;;;;3.65;100.00;61196.34;5095680;28;20430;-71
2022/04/05 03:47:44;;;;;;;19.23;9.70;;;;;;;3.60;100.00;61191.03;5095507;28;20437;-72
2022/04/05 03:50:11;;;;;;;19.83;10.97;;;;;;;3.52;100.00;61176.97;5094306;28;20460;-72
2022/04/05 03:52:38;;;;;;;21.33;10.73;;;;;;;3.42;100.00;61174.41;5095490;28;20486;-72
2022/04/05 03:55:06;;;;;;;26.13;10.70;;;;;;;3.39;100.00;61169.22;5095407;28;20503;-72
2022/04/05 03:57:32;;;;;;;21.10;10.60;;;;;;;3.35;100.00;61164.44;5095328;28;20481;-72
2022/04/05 04:00:01;;;;;;;22.20;10.87;;;;;;;3.39;100.00;61166.72;5095435;28;21001;-73
2022/04/05 04:02:28;;;;;;;33.20;11.10;;;;;;;3.45;100.00;61175.06;5095613;28;20483;-73
2022/04/05 04:04:54;;;;;;;23.77;11.53;;;;;;;3.45;100.00;61177.59;5094954;28;20442;-72
2022/04/05 04:07:21;;;;;;;20.77;10.73;;;;;;;3.47;100.00;61177.22;5093801;28;20434;-72
2022/04/05 04:09:51;;;;;;;17.83;11.03;;;;;;;3.45;100.00;61177.59;5095256;28;20577;-72
2022/04/05 04:12:19;;;;;;;26.23;11.43;;;;;;;3.49;100.00;61178.78;5094814;28;20441;-71
2022/04/05 04:14:45;;;;;;;43.03;13.70;;;;;;;3.57;100.00;61187.84;5095699;28;20490;-71
2022/04/05 04:17:14;;;;;;;30.57;15.87;;;;;;;3.33;100.00;61162.31;5094978;28;20469;-70
2022/04/05 04:19:40;;;;;;;27.33;16.10;;;;;;;3.34;100.00;61163.41;5095164;28;20437;-72
2022/04/05 04:22:07;;;;;;;21.70;14.60;;;;;;;3.25;100.00;61149.31;5095101;28;20491;-71
2022/04/05 04:24:34;;;;;;;31.20;14.10;;;;;;;3.30;100.00;61159.13;5094663;28;20487;-72
2022/04/05 04:27:01;;;;;;;29.47;14.23;;;;;;;3.37;100.00;61167.09;5095666;28;20519;-72
2022/04/05 04:29:28;;;;;;;21.37;12.93;;;;;;;3.38;100.00;61168.16;5095098;28;20519;-72
2022/04/05 04:31:55;;;;;;;29.33;12.83;;;;;;;3.49;100.00;61179.34;5094604;28;21003;-71
2022/04/05 04:34:23;;;;;;;55.97;15.23;;;;;;;3.44;100.00;61176.53;5094465;28;20434;-73
2022/04/05 04:36:50;;;;;;;34.03;14.10;;;;;;;3.53;100.00;61183.59;5094345;28;20484;-71
2022/04/05 04:39:18;;;;;;;33.50;15.30;;;;;;;3.41;100.00;61170.81;5094332;28;20820;-72
2022/04/05 04:41:45;;;;;;;44.17;17.53;;;;;;;3.51;100.00;61183.44;5094776;28;20441;-71
2022/04/05 04:44:12;;;;;;;46.10;15.50;;;;;;;3.56;100.00;61186.78;5094247;28;20442;-73
2022/04/05 04:46:39;;;;;;;95.77;50.03;;;;;;;2.76;100.00;61096.72;5094225;28;21027;-71
2022/04/05 04:49:06;;;;;;;79.87;42.90;;;;;;;3.60;100.00;61188.53;5092722;28;20823;-72
2022/04/05 04:51:34;;;;;;;57.40;22.90;;;;;;;3.79;100.00;61208.19;5094885;28;20442;-71
2022/04/05 04:54:01;;;;;;;36.10;18.10;;;;;;;3.95;100.00;61230.78;5094189;28;20831;-71
2022/04/05 04:56:28;;;;;;;42.00;19.53;;;;;;;4.13;100.00;61249.41;5094064;28;20477;-73
2022/04/05 04:58:57;;;;;;;39.83;19.47;;;;;;;4.08;100.00;61242.09;5094081;28;20536;-72
2022/04/05 05:01:24;;;;;;;76.03;31.50;;;;;;;4.17;100.00;61254.19;5093807;28;20442;-71
2022/04/05 05:03:53;;;;;;;45.00;22.57;;;;;;;4.11;100.00;61245.28;5093959;28;20847;-72
2022/04/05 05:06:19;;;;;;;75.20;35.20;;;;;;;4.11;100.00;61244.75;5094810;28;20491;-72
2022/04/05 05:08:48;;;;;;;52.20;25.47;;;;;;;4.28;100.00;61262.84;5094041;28;20794;-71
2022/04/05 05:11:14;;;;;;;74.30;34.40;;;;;;;4.12;100.00;61245.81;5093470;28;20465;-71
2022/04/05 05:13:41;;;;;;;61.97;25.80;;;;;;;4.13;100.00;61247.41;5093733;28;20826;-71
2022/04/05 05:16:08;;;;;;;41.30;25.53;;;;;;;3.85;100.00;61217.63;5093530;28;20944;-72
2022/04/05 05:18:35;;;;;;;62.43;26.50;;;;;;;4.21;100.00;61253.41;5093797;28;20499;-72
2022/04/05 05:21:02;;;;;;;91.20;36.77;;;;;;;4.10;100.00;61244.22;5093818;28;20442;-72
2022/04/05 05:23:29;;;;;;;78.67;35.93;;;;;;;4.03;100.00;61238.75;5093522;28;20446;-71
2022/04/05 05:25:57;;;;;;;75.87;44.50;;;;;;;4.04;100.00;61232.28;5093349;28;20446;-72
2022/04/05 05:28:25;;;;;;;80.03;47.77;;;;;;;4.18;100.00;61252.75;5093468;28;20502;-72
2022/04/05 05:30:52;;;;;;;99.83;58.13;;;;;;;4.44;100.00;61277.38;5094055;28;20534;-72
2022/04/05 05:33:19;;;;;;;87.60;55.97;;;;;;;4.51;100.00;61286.81;5093919;28;20430;-71
2022/04/05 05:35:47;;;;;;;87.13;45.03;;;;;;;4.41;100.00;61276.16;5093468;28;20437;-72
2022/04/05 05:38:15;;;;;;;84.00;42.60;;;;;;;3.80;100.00;61209.78;5093131;28;20481;-73
2022/04/05 05:40:41;;;;;;;84.13;43.63;;;;;;;4.36;100.00;61275.88;5093244;28;20444;-72
2022/04/05 05:43:10;;;;;;;63.93;41.93;;;;;;;4.43;100.00;61278.81;5093766;28;20446;-71
2022/04/05 05:45:38;;;;;;;67.23;34.23;;;;;;;4.70;100.00;61302.53;5093316;28;20434;-71
2022/04/05 05:48:07;;;;;;;81.47;40.07;;;;;;;4.99;100.00;61335.91;5093224;28;20445;-73
2022/04/05 05:50:35;;;;;;;81.53;40.57;;;;;;;5.05;100.00;61342.31;5093024;28;20442;-72
2022/04/05 05:53:03;;;;;;;83.63;37.70;;;;;;;5.20;100.00;61355.22;5093308;28;20508;-71
2022/04/05 05:55:30;;;;;;;59.57;30.10;;;;;;;5.13;100.00;61345.25;5092730;28;20511;-71
2022/04/05 05:57:59;;;;;;;44.93;26.83;;;;;;;5.75;100.00;61416.38;5093462;28;20486;-71
2022/04/05 06:00:27;;;;;;;53.93;22.43;;;;;;;6.12;100.00;61452.78;5092813;28;20434;-72
2022/04/05 06:02:58;;;;;;;41.53;24.53;;;;;;;6.63;100.00;61511.69;5092965;28;20869;-71
2022/04/05 06:05:25;;;;;;;37.03;20.93;;;;;;;6.87;100.00;61537.31;5092825;28;20445;-71
2022/04/05 06:07:52;;;;;;;33.00;19.37;;;;;;;7.36;100.00;61589.09;5093046;28;20453;-71
2022/04/05 06:10:21;;;;;;;31.47;18.40;;;;;;;7.67;100.00;61620.19;5092570;28;20542;-71
2022/04/05 06:12:49;;;;;;;27.23;15.63;;;;;;;6.84;100.00;61534.13;5092547;28;20507;-71
2022/04/05 06:15:18;;;;;;;21.83;14.60;;;;;;;8.07;100.00;61664.91;5093035;28;20463;-72
2022/04/05 06:17:47;;;;;;;17.47;11.57;;;;;;;7.92;100.00;61645.81;5092605;28;20489;-72
2022/04/05 06:20:16;;;;;;;22.60;12.43;;;;;;;8.11;100.00;61671.22;5092103;28;20920;-70
2022/04/05 06:22:45;;;;;;;23.60;11.37;;;;;;;7.94;100.00;61650.50;5092670;28;20465;-69
2022/04/05 06:25:13;;;;;;;21.53;12.87;;;;;;;8.57;100.00;61720.41;5093312;28;20445;-72
2022/04/05 06:27:40;;;;;;;29.77;13.60;;;;;;;8.71;100.00;61732.84;5092832;28;20507;-72
2022/04/05 06:30:09;;;;;;;22.00;13.00;;;;;;;8.81;100.00;61743.53;5092563;28;20487;-72
2022/04/05 06:32:36;;;;;;;23.80;13.33;;;;;;;9.13;100.00;61777.75;5092575;28;20507;-71
2022/04/05 06:35:06;;;;;;;24.43;13.80;;;;;;;9.53;100.00;61819.47;5092663;28;20441;-72
2022/04/05 06:37:35;;;;;;;31.80;13.90;;;;;;;9.62;100.00;61829.09;5091721;28;20497;-71
2022/04/05 06:40:03;;;;;;;35.17;14.10;;;;;;;9.68;100.00;61835.53;5092104;28;20238;-72
2022/04/05 06:42:30;;;;;;;24.37;12.87;;;;;;;9.96;100.00;61865.50;5092282;28;20279;-72
2022/04/05 06:44:56;;;;;;;23.07;13.53;;;;;;;9.76;100.00;61841.56;5092360;28;20261;-73
2022/04/05 06:47:24;;;;;;;21.30;12.70;;;;;;;9.45;100.00;61816.53;5091263;28;20566;-72
2022/04/05 06:49:51;;;;;;;22.23;13.20;;;;;;;9.53;100.00;61819.47;5091868;28;20507;-72
2022/04/05 06:52:19;;;;;;;18.17;9.93;;;;;;;9.04;100.00;61768.13;5092094;28;20529;-72
2022/04/05 06:54:46;;;;;;;30.30;12.93;;;;;;;8.92;100.00;61754.75;5092045;28;20200;-71
2022/04/05 06:57:12;;;;;;;32.73;13.70;;;;;;;8.96;100.00;61759.56;5091960;28;20538;-72
2022/04/05 06:59:39;;;;;;;23.03;14.47;;;;;;;9.28;100.00;61793.78;5092133;28;20457;-72
2022/04/05 07:02:06;;;;;;;24.30;13.07;;;;;;;9.70;100.00;61837.66;5091954;28;20446;-71
2022/04/05 07:04:33;;;;;;;30.57;12.03;;;;;;;9.47;100.00;61813.59;5091915;28;20245;-71
2022/04/05 07:07:00;;;;;;;28.30;11.43;;;;;;;9.86;100.00;61854.78;5091751;28;20449;-72
2022/04/05 07:09:29;;;;;;;36.17;16.13;;;;;;;9.94;100.00;61863.34;5091655;28;20195;-72
2022/04/05 07:11:55;;;;;;;17.37;10.63;;;;;;;10.53;100.00;61924.00;5091460;28;20794;-71
2022/04/05 07:14:22;;;;;;;20.10;10.77;;;;;;;10.21;100.00;61892.28;5091749;28;20200;-72
2022/04/05 07:16:49;;;;;;;25.60;11.27;;;;;;;10.58;100.00;61931.91;5091775;28;20195;-73
2022/04/05 07:19:16;;;;;;;27.33;11.10;;;;;;;11.00;100.00;61974.38;5092026;28;20204;-71
2022/04/05 07:21:43;;;;;;;15.87;10.30;;;;;;;11.44;100.00;62023.56;5091865;28;20200;-72
2022/04/05 07:24:09;;;;;;;16.17;10.20;;;;;;;11.38;100.00;62016.56;5091288;28;20207;-71
2022/04/05 07:26:39;;;;;;;24.63;10.40;;;;;;;11.04;100.00;61980.66;5091778;28;20245;-71
2022/04/05 07:29:06;;;;;;;16.90;10.43;;;;;;;11.03;100.00;61979.59;5091631;28;20234;-71
2022/04/05 07:31:32;;;;;;;21.03;9.63;;;;;;;11.18;100.00;61995.69;5091418;28;20697;-72
2022/04/05 07:34:01;;;;;;;15.73;9.77;;;;;;;11.93;100.00;62075.59;5091751;28;20253;-73
2022/04/05 07:36:28;;;;;;;22.87;10.10;;;;;;;12.44;100.00;62130.31;5090584;28;20227;-72
2022/04/05 07:38:54;;;;;;;21.17;10.73;;;;;;;12.76;100.00;62161.56;5091704;28;20326;-74
2022/04/05 07:41:21;;;;;;;21.70;10.63;;;;;;;13.21;100.00;62206.81;5091627;28;20191;-71
2022/04/05 07:43:49;;;;;;;14.50;9.37;;;;;;;13.28;100.00;62219.44;5091640;28;20200;-72
2022/04/05 07:46:16;;;;;;;20.70;9.87;;;;;;;12.82;100.00;62170.03;5091445;28;20257;-71
2022/04/05 07:48:46;;;;;;;14.53;9.50;;;;;;;13.17;100.00;62207.63;5092306;28;20282;-73
2022/04/05 07:51:14;;;;;;;13.77;8.43;;;;;;;13.39;100.00;62231.25;5091892;28;20289;-72
2022/04/05 07:53:40;;;;;;;14.30;7.40;;;;;;;13.63;100.00;62256.50;5091567;28;20656;-73
2022/04/05 07:56:08;;;;;;;12.70;7.30;;;;;;;13.47;100.00;62239.84;5091160;28;20191;-71
2022/04/05 07:58:35;;;;;;;11.07;6.27;;;;;;;13.04;100.00;62193.69;5091701;28;20273;-71
2022/04/05 08:01:03;;;;;;;12.13;7.67;;;;;;;13.30;100.00;62221.59;5094910;28;20673;-72
2022/04/05 08:03:30;;;;;;;12.87;6.97;;;;;;;13.40;100.00;62234.91;5094874;28;20195;-72
2022/04/05 08:05:57;;;;;;;15.80;7.00;;;;;;;13.32;100.00;62219.16;5095044;28;20249;-72
2022/04/05 08:08:24;;;;;;;12.63;7.03;;;;;;;13.39;100.00;62231.81;5094906;28;20662;-72
2022/04/05 08:10:50;;;;;;;11.70;6.13;;;;;;;13.01;100.00;62190.97;5095139;28;20223;-71
2022/04/05 08:13:17;;;;;;;15.43;6.47;;;;;;;12.91;100.00;62174.56;5094716;28;20196;-71
2022/04/05 08:15:44;;;;;;;11.63;7.17;;;;;;;13.49;100.00;62236.88;5094779;28;20196;-71
2022/04/05 08:18:12;;;;;;;12.50;6.47;;;;;;;13.73;100.00;62265.22;5094855;28;20380;-72
2022/04/05 08:20:41;;;;;;;8.83;5.80;;;;;;;13.67;100.00;62261.34;5094389;28;20196;-70
2022/04/05 08:23:08;;;;;;;12.50;6.80;;;;;;;13.48;100.00;62238.38;5094710;28;20195;-73
2022/04/05 08:25:35;;;;;;;9.57;6.80;;;;;;;13.30;100.00;62211.38;5094390;28;20223;-71
2022/04/05 08:28:02;;;;;;;10.13;5.67;;;;;;;13.20;100.00;62208.31;5095046;28;20196;-71
2022/04/05 08:30:29;;;;;;;13.37;6.13;;;;;;;12.91;100.00;62177.13;5095036;28;20234;-71
2022/04/05 08:32:55;;;;;;;7.17;5.80;;;;;;;12.60;100.00;62144.91;5094854;28;20195;-72
2022/04/05 08:35:24;;;;;;;12.13;6.53;;;;;;;12.63;100.00;62150.72;5094382;28;20558;-71
2022/04/05 08:37:55;;;;;;;9.27;5.77;;;;;;;12.13;100.00;62097.03;5094705;28;20280;-73
2022/04/05 08:40:23;;;;;;;11.80;6.23;;;;;;;13.22;100.00;62213.53;5094820;28;20196;-72
2022/04/05 08:42:53;;;;;;;18.67;6.53;;;;;;;13.81;100.00;62271.25;5094496;28;20249;-72
2022/04/05 08:45:21;;;;;;;12.13;6.03;;;;;;;14.24;100.00;62322.63;5094184;28;20195;-71
2022/04/05 08:47:51;;;;;;;9.23;5.23;;;;;;;14.60;100.00;62360.28;5094161;28;20203;-72
2022/04/05 08:50:22;;;;;;;6.83;4.73;;;;;;;14.91;100.00;62399.28;5094140;28;20203;-72
2022/04/05 08:52:50;;;;;;;10.20;5.37;;;;;;;14.75;100.00;62376.94;5094027;28;20253;-73
2022/04/05 08:55:18;;;;;;;11.20;5.60;;;;;;;14.63;100.00;62360.94;5093835;28;20206;-71
2022/04/05 08:57:45;;;;;;;9.60;5.40;;;;;;;14.89;100.00;62388.91;5094385;28;20274;-70
2022/04/05 09:00:14;;;;;;;8.20;4.77;;;;;;;15.35;100.00;62438.41;5093817;28;20199;-71
2022/04/05 09:02:53;;;;;;;8.40;5.07;;;;;;;15.88;100.00;62495.47;5094047;28;20218;-72
2022/04/05 09:05:30;;;;;;;7.73;4.90;;;;;;;15.96;100.00;62504.09;5093515;28;20253;-72
2022/04/05 09:08:14;;;;;;;5.73;3.83;;;;;;;15.77;93.60;62485.66;5094031;28;20260;-71
2022/04/05 09:10:41;;;;;;;6.33;4.60;;;;;;;16.03;98.88;62513.66;5092721;28;20220;-72
2022/04/05 09:13:10;;;;;;;7.87;3.90;;;;;;;16.30;92.01;62537.06;5093358;28;20257;-72
2022/04/05 09:15:38;;;;;;;8.43;3.70;;;;;;;15.27;85.85;62432.38;5092310;28;20233;-71
2022/04/05 09:18:06;;;;;;;10.00;3.50;;;;;;;15.94;92.87;62499.38;5094124;28;20234;-71
2022/04/05 09:20:45;;;;;;;7.23;3.30;;;;;;;15.94;87.64;62501.94;5093317;28;20198;-72
2022/04/05 09:23:25;;;;;;;7.30;3.70;;;;;;;16.18;86.38;62529.28;5094106;28;20604;-70
2022/04/05 09:25:57;;;;;;;6.20;2.93;;;;;;;16.65;80.76;62574.78;5093546;28;20218;-72
2022/04/05 09:28:32;;;;;;;5.07;3.33;;;;;;;16.85;78.26;62598.91;5093853;28;20235;-72
2022/04/05 09:31:01;;;;;;;4.17;3.07;;;;;;;16.53;73.75;62567.00;5093673;28;20275;-71
2022/04/05 09:33:30;;;;;;;4.20;2.80;;;;;;;16.89;75.03;62606.34;5093341;28;20195;-73
2022/04/05 09:36:09;;;;;;;8.23;4.03;;;;;;;17.08;71.72;62623.72;5093293;28;20679;-71
2022/04/05 09:38:40;;;;;;;11.83;3.50;;;;;;;17.00;66.24;62617.66;5093346;28;20654;-72
2022/04/05 09:41:24;;;;;;;5.20;2.97;;;;;;;16.84;70.41;62600.41;5093779;28;20290;-72
2022/04/05 09:43:57;;;;;;;2.90;2.53;;;;;;;17.24;61.13;62640.41;5093083;28;20667;-72
2022/04/05 09:46:25;;;;;;;3.10;2.50;;;;;;;16.99;54.44;62611.44;5093389;28;20203;-72
2022/04/05 09:49:10;;;;;;;2.70;2.27;;;;;;;16.81;59.34;62594.59;5093238;28;20257;-71
2022/04/05 09:51:43;;;;;;;6.27;2.70;;;;;;;17.42;57.58;62662.94;5093758;28;20207;-72
2022/04/05 09:54:22;;;;;;;3.73;2.27;;;;;;;17.19;51.96;62638.13;5092855;28;20283;-71
2022/04/05 09:56:49;;;;;;;3.90;2.17;;;;;;;17.14;53.75;62632.75;5093069;28;20226;-72
2022/04/05 09:59:19;;;;;;;4.70;2.30;;;;;;;16.88;51.90;62605.25;5093090;28;20288;-71
2022/04/05 10:01:47;;;;;;;5.00;2.60;;;;;;;16.55;53.45;62566.59;5092871;28;20294;-71
2022/04/05 10:04:16;;;;;;;2.83;2.57;;;;;;;16.90;58.61;62604.31;5092728;28;20207;-71
2022/04/05 10:06:47;;;;;;;4.53;2.40;;;;;;;17.39;60.18;62659.72;5092536;28;20203;-73
2022/04/05 10:09:16;;;;;;;2.30;2.10;;;;;;;17.31;52.52;62651.06;5092650;28;20227;-72
2022/04/05 10:11:45;;;;;;;4.80;2.63;;;;;;;17.34;52.73;62654.31;5092542;28;20227;-72
2022/04/05 10:14:14;;;;;;;4.27;2.43;;;;;;;16.95;54.75;62612.25;5092396;28;20705;-72
2022/04/05 10:16:41;;;;;;;7.03;3.07;;;;;;;16.41;54.56;62551.47;5092917;28;20192;-71
2022/04/05 10:19:10;;;;;;;3.33;2.77;;;;;;;16.59;57.14;62570.91;5092620;28;20231;-72
2022/04/05 10:21:39;;;;;;;5.87;3.13;;;;;;;16.97;56.68;62614.41;5091937;28;20200;-72
2022/04/05 10:24:07;;;;;;;4.07;2.97;;;;;;;16.55;57.08;62569.16;5093031;28;20195;-71
2022/04/05 10:26:37;;;;;;;5.77;2.30;;;;;;;16.17;57.95;62528.19;5092421;28;20200;-72
2022/04/05 10:29:07;;;;;;;4.83;2.93;;;;;;;16.67;58.69;62580.06;5092317;28;20591;-72
2022/04/05 10:31:45;;;;;;;4.00;2.60;;;;;;;17.43;56.64;62661.44;5092668;28;20231;-71
2022/04/05 10:34:19;;;;;;;4.17;3.10;;;;;;;17.97;55.89;62716.59;5092543;28;20199;-72
2022/04/05 10:37:16;;;;;;;3.43;2.47;;;;;;;18.66;53.33;62790.53;5093222;28;20267;-70
2022/04/05 10:39:45;;;;;;;3.40;2.60;;;;;;;18.69;50.34;62796.38;5092155;28;20235;-72
2022/04/05 10:42:25;;;;;;;4.20;2.60;;;;;;;18.57;49.15;62783.41;5091969;28;20272;-73
2022/04/05 10:44:54;;;;;;;11.27;2.73;;;;;;;18.58;50.63;62787.06;5092220;28;20195;-72
2022/04/05 10:47:21;;;;;;;3.57;3.03;;;;;;;18.77;55.41;62805.00;5092114;28;20192;-72
2022/04/05 10:49:49;;;;;;;5.87;3.00;;;;;;;18.47;52.90;62770.03;5092433;28;20191;-72
2022/04/05 10:52:19;;;;;;;4.57;3.03;;;;;;;19.35;51.10;62869.72;5091996;28;20195;-72
2022/04/05 10:54:49;;;;;;;5.70;3.10;;;;;;;19.34;50.78;62866.59;5092222;28;20286;-71
2022/04/05 10:57:31;;;;;;;7.97;3.40;;;;;;;19.26;49.62;62852.22;5092010;28;20663;-73
2022/04/05 11:00:14;;;;;;;4.80;3.13;;;;;;;18.49;47.08;62774.78;5091786;28;20219;-72
2022/04/05 11:02:47;;;;;;;8.20;2.93;;;;;;;18.75;52.27;62800.28;5091831;28;20280;-71
2022/04/05 11:05:35;;;;;;;5.13;3.10;;;;;;;19.29;50.01;62861.19;5090821;28;20596;-72
2022/04/05 11:08:10;;;;;;;6.07;3.20;;;;;;;19.65;48.72;62899.00;5091728;28;20688;-73
2022/04/05 11:10:51;;;;;;;3.10;2.73;;;;;;;19.69;47.76;62903.31;5092155;28;20237;-71
2022/04/05 11:13:32;;;;;;;6.13;3.33;;;;;;;19.70;46.54;62901.81;5092524;28;20253;-71
2022/04/05 11:16:00;;;;;;;3.60;2.90;;;;;;;19.50;46.72;62880.22;5091698;28;20643;-72
2022/04/05 11:18:29;;;;;;;4.63;3.67;;;;;;;19.50;46.54;62880.75;5091429;28;20641;-72
2022/04/05 11:20:58;;;;;;;10.43;3.80;;;;;;;19.74;46.61;62911.84;5091614;28;20658;-72
2022/04/05 11:23:46;;;;;;;10.33;4.10;;;;;;;20.49;44.51;62992.41;5091814;28;20206;-72
2022/04/05 11:26:23;;;;;;;7.37;4.30;;;;;;;20.76;43.16;63016.44;5091792;28;20195;-72
2022/04/05 11:28:51;;;;;;;5.33;3.80;;;;;;;20.97;43.65;63044.34;5091711;28;20256;-72
2022/04/05 11:31:28;;;;;;;7.10;3.70;;;;;;;20.83;41.57;63028.66;5091591;28;20224;-73